createdAt,value
2023-05-24T00:00:06.326Z,9.82
2023-05-24T00:02:33.731Z,9.90
2023-05-24T00:05:01.443Z,10.45
2023-05-24T00:07:28.843Z,10.15
2023-05-24T00:09:56.269Z,11.05
2023-05-24T00:12:23.481Z,9.30
2023-05-24T00:14:51.376Z,9.25
2023-05-24T00:17:18.728Z,9.60
2023-05-24T00:19:46.020Z,10.15
2023-05-24T00:22:14.293Z,9.43
2023-05-24T00:24:41.657Z,8.88
2023-05-24T00:27:08.902Z,9.48
2023-05-24T00:29:36.116Z,10.02
2023-05-24T00:32:03.298Z,10.38
2023-05-24T00:34:30.617Z,10.90
2023-05-24T00:36:58.099Z,10.85
2023-05-24T00:39:25.487Z,11.18
2023-05-24T00:41:52.710Z,10.13
2023-05-24T00:44:19.861Z,11.30
2023-05-24T00:46:47.713Z,10.52
2023-05-24T00:49:14.955Z,9.73
2023-05-24T00:51:42.251Z,10.30
2023-05-24T00:54:09.631Z,10.25
2023-05-24T00:56:36.905Z,9.60
2023-05-24T00:59:04.113Z,10.13
2023-05-24T01:01:35.567Z,9.70
2023-05-24T01:04:03.690Z,9.10
2023-05-24T01:06:33.334Z,8.57
2023-05-24T01:09:20.249Z,9.80
2023-05-24T01:12:20.145Z,9.23
2023-05-24T01:14:53.209Z,8.48
2023-05-24T01:17:34.054Z,8.32
2023-05-24T01:20:21.153Z,8.63
2023-05-24T01:23:06.718Z,9.18
2023-05-24T01:25:49.120Z,9.23
2023-05-24T01:28:19.154Z,8.18
2023-05-24T01:30:46.961Z,8.70
2023-05-24T01:33:14.743Z,8.93
2023-05-24T01:35:42.877Z,7.88
2023-05-24T01:38:13.311Z,8.05
2023-05-24T01:40:41.506Z,9.10
2023-05-24T01:43:34.084Z,9.23
2023-05-24T01:46:08.793Z,8.87
2023-05-24T01:49:02.518Z,8.52
2023-05-24T01:51:38.922Z,8.75
2023-05-24T01:54:08.147Z,8.82
2023-05-24T01:56:37.327Z,8.45
2023-05-24T01:59:06.253Z,8.65
2023-05-24T02:01:34.894Z,8.93
2023-05-24T02:04:02.809Z,8.10
2023-05-24T02:06:30.336Z,8.18
2023-05-24T02:08:57.539Z,8.45
2023-05-24T02:11:24.720Z,8.70
2023-05-24T02:13:51.982Z,8.27
2023-05-24T02:16:19.260Z,8.30
2023-05-24T02:18:47.039Z,8.80
2023-05-24T02:21:14.328Z,8.63
2023-05-24T02:23:41.932Z,8.55
2023-05-24T02:26:11.796Z,8.88
2023-05-24T02:28:39.022Z,8.48
2023-05-24T02:31:06.699Z,8.55
2023-05-24T02:33:34.020Z,8.48
2023-05-24T02:36:01.736Z,8.25
2023-05-24T02:38:28.996Z,8.40
2023-05-24T02:40:56.494Z,8.35
2023-05-24T02:43:23.681Z,8.27
2023-05-24T02:45:50.968Z,7.97
2023-05-24T02:48:18.171Z,8.80
2023-05-24T02:50:45.501Z,9.40
2023-05-24T02:53:12.845Z,8.60
2023-05-24T02:55:40.191Z,9.23
2023-05-24T02:58:08.588Z,8.77
2023-05-24T03:00:36.240Z,8.43
2023-05-24T03:03:03.504Z,8.55
2023-05-24T03:05:30.931Z,8.85
2023-05-24T03:07:58.681Z,9.52
2023-05-24T03:10:25.873Z,8.77
2023-05-24T03:12:53.045Z,9.30
2023-05-24T03:15:20.240Z,8.70
2023-05-24T03:17:47.499Z,9.20
2023-05-24T03:20:16.061Z,8.88
2023-05-24T03:22:43.406Z,9.82
2023-05-24T03:25:10.664Z,8.85
2023-05-24T03:27:37.881Z,8.77
2023-05-24T03:30:06.878Z,9.00
2023-05-24T03:32:34.201Z,8.73
2023-05-24T03:35:01.785Z,8.75
2023-05-24T03:37:29.054Z,8.32
2023-05-24T03:39:56.213Z,7.75
2023-05-24T03:42:23.486Z,8.10
2023-05-24T03:44:50.716Z,7.68
2023-05-24T03:47:17.909Z,7.60
2023-05-24T03:49:45.195Z,7.47
2023-05-24T03:52:12.345Z,7.95
2023-05-24T03:54:39.649Z,7.25
2023-05-24T03:57:07.256Z,7.10
2023-05-24T03:59:34.553Z,7.00
2023-05-24T04:02:01.858Z,6.25
2023-05-24T04:04:29.155Z,6.60
2023-05-24T04:06:56.473Z,6.55
2023-05-24T04:09:24.396Z,6.88
2023-05-24T04:11:51.701Z,7.43
2023-05-24T04:14:18.931Z,6.80
2023-05-24T04:16:47.027Z,6.78
2023-05-24T04:19:14.448Z,6.80
2023-05-24T04:21:41.787Z,7.60
2023-05-24T04:24:09.632Z,6.78
2023-05-24T04:26:38.080Z,7.28
2023-05-24T04:29:05.358Z,7.55
2023-05-24T04:31:34.463Z,7.30
2023-05-24T04:34:02.303Z,7.70
2023-05-24T04:36:31.583Z,6.85
2023-05-24T04:39:03.186Z,7.75
2023-05-24T04:41:32.292Z,12.80
2023-05-24T04:44:02.327Z,12.15
2023-05-24T04:46:29.797Z,11.68
2023-05-24T04:48:57.111Z,11.02
2023-05-24T04:51:24.427Z,10.55
2023-05-24T04:53:51.540Z,9.80
2023-05-24T04:56:19.789Z,11.30
2023-05-24T04:58:48.224Z,10.13
2023-05-24T05:01:15.588Z,6.88
2023-05-24T05:03:46.557Z,7.07
2023-05-24T05:06:13.926Z,6.80
2023-05-24T05:08:41.151Z,7.88
2023-05-24T05:11:08.651Z,9.50
2023-05-24T05:13:36.080Z,7.50
2023-05-24T05:16:03.426Z,7.43
2023-05-24T05:18:30.621Z,8.15
2023-05-24T05:20:58.621Z,6.90
2023-05-24T05:23:25.911Z,7.90
2023-05-24T05:25:53.184Z,6.72
2023-05-24T05:28:20.961Z,6.28
2023-05-24T05:30:48.122Z,5.97
2023-05-24T05:33:15.550Z,6.78
2023-05-24T05:35:42.771Z,5.15
2023-05-24T05:38:10.839Z,5.93
2023-05-24T05:40:38.106Z,5.57
2023-05-24T05:43:05.280Z,6.70
2023-05-24T05:45:32.747Z,6.22
2023-05-24T05:48:00.154Z,6.05
2023-05-24T05:50:27.499Z,7.05
2023-05-24T05:52:54.825Z,7.65
2023-05-24T05:55:22.287Z,7.55
2023-05-24T05:57:49.535Z,7.40
2023-05-24T06:00:17.026Z,7.35
2023-05-24T06:02:44.382Z,6.30
2023-05-24T06:05:12.902Z,6.28
2023-05-24T06:07:41.324Z,6.53
2023-05-24T06:10:08.791Z,6.25
2023-05-24T06:12:36.196Z,6.53
2023-05-24T06:15:06.646Z,6.40
2023-05-24T06:17:34.736Z,6.97
2023-05-24T06:20:02.084Z,6.53
2023-05-24T06:22:30.040Z,6.40
2023-05-24T06:24:57.161Z,5.30
2023-05-24T06:27:24.435Z,5.13
2023-05-24T06:29:51.738Z,5.35
2023-05-24T06:32:18.948Z,4.30
2023-05-24T06:34:46.253Z,4.40
2023-05-24T06:37:26.760Z,4.68
2023-05-24T06:40:00.200Z,4.45
2023-05-24T06:42:28.047Z,4.88
2023-05-24T06:44:55.207Z,4.60
2023-05-24T06:47:25.738Z,4.55
2023-05-24T06:49:53.892Z,4.20
2023-05-24T06:52:21.203Z,4.18
2023-05-24T06:54:48.579Z,4.50
2023-05-24T06:57:15.710Z,4.60
2023-05-24T06:59:42.869Z,4.07
2023-05-24T07:02:10.822Z,5.28
2023-05-24T07:04:38.195Z,4.97
2023-05-24T07:07:05.367Z,4.50
2023-05-24T07:09:32.652Z,3.65
2023-05-24T07:12:00.128Z,3.25
2023-05-24T07:14:28.349Z,3.58
2023-05-24T07:16:57.749Z,3.40
2023-05-24T07:19:29.397Z,4.07
2023-05-24T07:21:57.350Z,3.92
2023-05-24T07:24:25.198Z,3.83
2023-05-24T07:26:53.880Z,4.70
2023-05-24T07:29:22.608Z,3.78
2023-05-24T07:31:50.296Z,3.70
2023-05-24T07:34:18.775Z,3.92
2023-05-24T07:36:48.688Z,4.35
2023-05-24T07:39:16.702Z,4.10
2023-05-24T07:41:43.942Z,3.83
2023-05-24T07:44:12.281Z,4.00
2023-05-24T07:46:39.598Z,3.55
2023-05-24T07:49:07.329Z,4.25
2023-05-24T07:51:34.628Z,4.00
2023-05-24T07:54:02.204Z,3.42
2023-05-24T07:56:29.561Z,3.50
2023-05-24T07:59:03.602Z,4.75
2023-05-24T08:01:35.407Z,4.35
2023-05-24T08:04:04.400Z,4.15
2023-05-24T08:06:35.343Z,3.95
2023-05-24T08:09:04.635Z,3.72
2023-05-24T08:11:32.038Z,3.70
2023-05-24T08:13:59.381Z,3.88
2023-05-24T08:16:26.998Z,3.95
2023-05-24T08:18:55.283Z,3.90
2023-05-24T08:21:22.811Z,4.05
2023-05-24T08:23:50.107Z,3.38
2023-05-24T08:26:19.528Z,4.10
2023-05-24T08:28:46.746Z,3.97
2023-05-24T08:31:13.999Z,4.07
2023-05-24T08:33:41.652Z,3.90
2023-05-24T08:36:09.214Z,4.20
2023-05-24T08:38:36.456Z,3.90
2023-05-24T08:41:07.593Z,4.07
2023-05-24T08:43:35.743Z,5.05
2023-05-24T08:46:04.265Z,4.10
2023-05-24T08:48:31.772Z,4.22
2023-05-24T08:50:59.714Z,3.92
2023-05-24T08:53:27.543Z,3.92
2023-05-24T08:55:56.406Z,5.22
2023-05-24T08:58:23.712Z,4.32
2023-05-24T09:00:51.243Z,4.70
2023-05-24T09:03:19.819Z,4.35
2023-05-24T09:05:47.135Z,4.00
2023-05-24T09:08:18.325Z,3.97
2023-05-24T09:10:54.872Z,3.73
2023-05-24T09:13:27.226Z,4.00
2023-05-24T09:15:54.616Z,4.75
2023-05-24T09:18:22.135Z,4.80
2023-05-24T09:20:49.349Z,4.50
2023-05-24T09:23:17.862Z,3.95
2023-05-24T09:25:46.807Z,4.45
2023-05-24T09:28:24.905Z,4.82
2023-05-24T09:31:06.193Z,4.60
2023-05-24T09:33:34.956Z,4.00
2023-05-24T09:36:04.280Z,4.00
2023-05-24T09:38:31.695Z,4.57
2023-05-24T09:41:05.800Z,3.83
2023-05-24T09:43:37.443Z,3.88
2023-05-24T09:46:05.013Z,4.35
2023-05-24T09:48:32.731Z,4.63
2023-05-24T09:51:09.972Z,4.00
2023-05-24T09:53:37.592Z,4.32
2023-05-24T09:56:06.409Z,4.25
2023-05-24T09:58:33.818Z,3.80
2023-05-24T10:01:07.499Z,3.95
2023-05-24T10:03:38.021Z,4.05
2023-05-24T10:06:08.031Z,4.10
2023-05-24T10:08:36.762Z,4.43
2023-05-24T10:11:07.426Z,4.10
2023-05-24T10:13:36.448Z,4.32
2023-05-24T10:16:04.269Z,3.92
2023-05-24T10:18:31.716Z,4.00
2023-05-24T10:21:00.021Z,3.88
2023-05-24T10:23:31.127Z,4.45
2023-05-24T10:26:12.843Z,4.57
2023-05-24T10:28:44.719Z,4.32
2023-05-24T10:31:25.881Z,4.28
2023-05-24T10:34:04.115Z,5.10
2023-05-24T10:36:35.458Z,4.47
2023-05-24T10:39:03.819Z,4.20
2023-05-24T10:41:40.814Z,4.22
2023-05-24T10:44:13.484Z,4.53
2023-05-24T10:47:13.502Z,4.25
2023-05-24T10:49:53.147Z,4.15
2023-05-24T10:52:20.922Z,4.30
2023-05-24T10:55:05.376Z,4.18
2023-05-24T10:57:33.297Z,4.53
2023-05-24T11:00:35.408Z,4.38
2023-05-24T11:03:09.091Z,3.83
2023-05-24T11:05:57.549Z,4.78
2023-05-24T11:08:35.836Z,3.90
2023-05-24T11:13:42.516Z,4.38
2023-05-24T11:16:09.746Z,4.60
2023-05-24T11:18:39.234Z,4.05
2023-05-24T11:21:09.464Z,4.20
2023-05-24T11:23:38.427Z,4.35
2023-05-24T11:26:07.508Z,4.07
2023-05-24T11:28:38.103Z,3.97
2023-05-24T11:31:10.013Z,3.78
2023-05-24T11:33:42.818Z,3.63
2023-05-24T11:36:11.057Z,4.78
2023-05-24T11:38:38.290Z,4.03
2023-05-24T11:41:05.830Z,4.28
2023-05-24T11:43:33.120Z,3.80
2023-05-24T11:46:01.699Z,3.60
2023-05-24T11:48:30.082Z,3.53
2023-05-24T11:50:58.030Z,3.70
2023-05-24T11:53:25.223Z,3.65
2023-05-24T11:55:54.689Z,4.05
2023-05-24T11:58:29.906Z,3.92
2023-05-24T12:00:57.258Z,3.42
2023-05-24T12:03:24.979Z,3.53
2023-05-24T12:05:53.000Z,3.78
2023-05-24T12:08:20.717Z,3.78
2023-05-24T12:10:49.549Z,3.85
2023-05-24T12:13:25.487Z,3.60
2023-05-24T12:15:56.483Z,3.85
2023-05-24T12:18:28.875Z,3.88
2023-05-24T12:20:56.079Z,4.03
2023-05-24T12:23:29.676Z,3.55
2023-05-24T12:26:00.526Z,4.30
2023-05-24T12:28:32.526Z,3.97
2023-05-24T12:33:26.988Z,3.60
2023-05-24T12:35:56.444Z,4.00
2023-05-24T12:38:25.865Z,4.00
2023-05-24T12:41:08.139Z,3.50
2023-05-24T12:43:39.802Z,4.03
2023-05-24T12:46:07.242Z,3.90
2023-05-24T12:48:34.558Z,3.63
2023-05-24T12:51:02.494Z,4.13
2023-05-24T12:53:29.880Z,4.15
2023-05-24T12:55:57.300Z,3.83
2023-05-24T12:58:24.679Z,4.57
2023-05-24T13:00:52.426Z,4.05
2023-05-24T13:03:19.688Z,4.13
2023-05-24T13:05:47.506Z,4.25
2023-05-24T13:08:14.932Z,4.00
2023-05-24T13:10:42.402Z,4.00
2023-05-24T13:13:09.863Z,3.92
2023-05-24T13:15:38.232Z,4.30
2023-05-24T13:18:06.932Z,4.28
2023-05-24T13:20:34.401Z,4.60
2023-05-24T13:23:01.645Z,4.20
2023-05-24T13:25:29.812Z,4.20
2023-05-24T13:27:57.500Z,4.68
2023-05-24T13:30:27.918Z,4.30
2023-05-24T13:32:56.275Z,4.70
2023-05-24T13:35:23.605Z,4.40
2023-05-24T13:37:54.409Z,4.45
2023-05-24T13:40:22.381Z,3.88
2023-05-24T13:42:49.798Z,4.57
2023-05-24T13:45:17.798Z,4.30
2023-05-24T13:47:45.823Z,4.20
2023-05-24T13:50:16.391Z,4.05
2023-05-24T13:52:44.229Z,4.03
2023-05-24T13:55:11.831Z,4.18
2023-05-24T13:57:51.186Z,4.03
2023-05-24T14:00:20.082Z,3.67
2023-05-24T14:02:57.393Z,4.18
2023-05-24T14:05:28.062Z,4.47
2023-05-24T14:08:00.886Z,4.13
2023-05-24T14:10:28.336Z,4.28
2023-05-24T14:13:12.859Z,3.80
2023-05-24T14:15:44.973Z,3.63
2023-05-24T14:18:12.952Z,4.05
2023-05-24T14:20:41.010Z,3.70
2023-05-24T14:23:08.563Z,4.20
2023-05-24T14:25:36.348Z,3.95
2023-05-24T14:28:08.786Z,4.50
2023-05-24T14:30:38.014Z,4.38
2023-05-24T14:33:06.619Z,4.35
2023-05-24T14:35:40.136Z,4.15
2023-05-24T14:38:09.757Z,4.07
2023-05-24T14:40:40.145Z,4.80
2023-05-24T14:43:10.798Z,4.78
2023-05-24T14:45:39.778Z,4.10
2023-05-24T14:48:15.117Z,4.10
2023-05-24T14:50:43.408Z,4.18
2023-05-24T14:53:15.170Z,3.95
2023-05-24T14:55:44.592Z,4.45
2023-05-24T14:58:13.741Z,3.85
2023-05-24T15:00:44.272Z,4.20
2023-05-24T15:03:15.180Z,3.67
2023-05-24T15:05:44.281Z,3.58
2023-05-24T15:08:12.188Z,3.40
2023-05-24T15:10:40.027Z,5.20
2023-05-24T15:13:09.108Z,5.13
2023-05-24T15:15:37.352Z,4.95
2023-05-24T15:18:06.693Z,5.57
2023-05-24T15:20:36.034Z,5.93
2023-05-24T15:23:05.473Z,6.32
2023-05-24T15:25:33.449Z,5.75
2023-05-24T15:28:02.117Z,4.88
2023-05-24T15:30:30.942Z,4.82
2023-05-24T15:32:59.666Z,6.38
2023-05-24T15:35:28.444Z,6.20
2023-05-24T15:37:57.420Z,6.82
2023-05-24T15:40:24.908Z,6.68
2023-05-24T15:42:53.123Z,5.28
2023-05-24T15:45:20.566Z,5.95
2023-05-24T15:47:47.889Z,5.00
2023-05-24T15:50:15.240Z,5.70
2023-05-24T15:52:42.465Z,5.20
2023-05-24T15:55:10.076Z,5.97
2023-05-24T15:57:37.221Z,7.85
2023-05-24T16:00:04.604Z,6.22
2023-05-24T16:02:31.834Z,6.53
2023-05-24T16:04:59.050Z,6.82
2023-05-24T16:07:26.546Z,7.63
2023-05-24T16:09:54.260Z,8.32
2023-05-24T16:12:22.157Z,7.70
2023-05-24T16:14:49.532Z,8.57
2023-05-24T16:17:16.771Z,8.88
2023-05-24T16:19:46.547Z,6.95
2023-05-24T16:22:15.020Z,7.70
2023-05-24T16:24:44.156Z,6.60
2023-05-24T16:27:13.306Z,8.10
2023-05-24T16:29:42.391Z,7.70
2023-05-24T16:32:12.747Z,7.22
2023-05-24T16:34:56.325Z,7.75
2023-05-24T16:37:26.677Z,7.47
2023-05-24T16:39:58.433Z,6.28
2023-05-24T16:42:27.740Z,6.43
2023-05-24T16:44:58.316Z,6.43
2023-05-24T16:47:29.535Z,7.60
2023-05-24T16:49:59.063Z,6.60
2023-05-24T16:52:31.881Z,6.97
2023-05-24T16:55:04.622Z,6.75
2023-05-24T16:57:34.154Z,6.82
2023-05-24T17:00:08.454Z,5.63
2023-05-24T17:02:43.214Z,6.28
2023-05-24T17:05:13.292Z,6.65
2023-05-24T17:07:42.490Z,5.97
2023-05-24T17:10:15.833Z,6.30
2023-05-24T17:12:44.359Z,7.47
2023-05-24T17:15:13.295Z,7.22
2023-05-24T17:17:46.162Z,8.38
2023-05-24T17:20:15.560Z,8.25
2023-05-24T17:22:44.653Z,8.60
2023-05-24T17:25:18.709Z,9.32
2023-05-24T17:27:52.966Z,10.00
2023-05-24T17:30:21.600Z,9.07
2023-05-24T17:32:54.462Z,7.57
2023-05-24T17:35:24.666Z,8.07
2023-05-24T17:37:54.438Z,8.15
2023-05-24T17:40:23.376Z,6.97
2023-05-24T17:42:58.203Z,7.13
2023-05-24T17:45:32.184Z,7.45
2023-05-24T17:48:01.133Z,7.18
2023-05-24T17:50:30.818Z,7.20
2023-05-24T17:53:01.288Z,7.05
2023-05-24T17:55:32.511Z,7.10
2023-05-24T17:58:01.174Z,7.88
2023-05-24T18:00:34.979Z,7.45
2023-05-24T18:03:08.848Z,7.45
2023-05-24T18:05:37.792Z,7.05
2023-05-24T18:08:06.766Z,7.28
2023-05-24T18:10:36.775Z,8.13
2023-05-24T18:13:13.309Z,7.82
2023-05-24T18:15:43.023Z,7.68
2023-05-24T18:18:17.437Z,7.50
2023-05-24T18:20:48.064Z,6.97
2023-05-24T18:23:18.458Z,7.50
2023-05-24T18:25:50.621Z,8.40
2023-05-24T18:28:31.141Z,10.55
2023-05-24T18:31:03.227Z,10.13
2023-05-24T18:33:33.663Z,10.02
2023-05-24T18:36:05.778Z,10.88
2023-05-24T18:38:43.810Z,9.23
2023-05-24T18:41:13.078Z,8.75
2023-05-24T18:43:43.825Z,9.18
2023-05-24T18:46:16.281Z,8.85
2023-05-24T18:48:51.091Z,8.82
2023-05-24T18:51:24.519Z,8.45
2023-05-24T18:53:55.664Z,8.98
2023-05-24T18:56:28.840Z,8.82
2023-05-24T18:59:02.241Z,8.38
2023-05-24T19:01:31.900Z,9.30
2023-05-24T19:04:07.561Z,8.43
2023-05-24T19:06:38.403Z,7.70
2023-05-24T19:09:16.860Z,7.05
2023-05-24T19:11:47.798Z,7.43
2023-05-24T19:14:19.970Z,7.65
2023-05-24T19:16:50.580Z,8.25
2023-05-24T19:19:18.700Z,8.32
2023-05-24T19:21:49.098Z,8.52
2023-05-24T19:24:20.029Z,8.75
2023-05-24T19:26:48.283Z,8.00
2023-05-24T19:29:24.772Z,8.50
2023-05-24T19:31:57.066Z,8.32
2023-05-24T19:34:26.380Z,7.70
2023-05-24T19:36:55.389Z,8.10
2023-05-24T19:39:26.561Z,7.35
2023-05-24T19:41:57.803Z,7.88
2023-05-24T19:44:28.204Z,8.55
2023-05-24T19:47:01.265Z,8.43
2023-05-24T19:52:05.631Z,8.75
2023-05-24T19:54:43.089Z,8.77
2023-05-24T19:57:12.930Z,10.10
2023-05-24T19:59:40.177Z,10.02
2023-05-24T20:02:07.628Z,10.13
2023-05-24T20:04:36.296Z,9.88
2023-05-24T20:07:03.902Z,8.77
2023-05-24T20:09:33.296Z,8.32
2023-05-24T20:12:02.784Z,9.68
2023-05-24T20:14:33.924Z,9.10
2023-05-24T20:17:01.483Z,9.65
2023-05-24T20:19:31.593Z,8.95
2023-05-24T20:21:59.833Z,9.18
2023-05-24T20:24:28.645Z,9.27
2023-05-24T20:26:58.385Z,10.15
2023-05-24T20:29:26.183Z,9.63
2023-05-24T20:31:54.635Z,9.02
2023-05-24T20:34:22.471Z,9.50
2023-05-24T20:36:50.094Z,8.75
2023-05-24T20:39:17.627Z,10.63
2023-05-24T20:41:44.780Z,10.18
2023-05-24T20:44:12.004Z,12.00
2023-05-24T20:46:39.180Z,12.98
2023-05-24T20:49:06.356Z,12.90
2023-05-24T20:51:34.322Z,12.98
2023-05-24T20:54:01.449Z,12.45
2023-05-24T20:56:28.802Z,11.57
2023-05-24T20:58:59.369Z,12.02
2023-05-24T21:01:27.182Z,12.10
2023-05-24T21:03:54.509Z,12.35
2023-05-24T21:06:22.009Z,11.80
2023-05-24T21:08:49.447Z,12.82
2023-05-24T21:11:16.599Z,12.65
2023-05-24T21:13:43.783Z,11.63
2023-05-24T21:16:12.267Z,12.27
2023-05-24T21:18:39.469Z,12.52
2023-05-24T21:21:07.056Z,12.45
2023-05-24T21:23:34.242Z,11.95
2023-05-24T21:26:02.555Z,12.05
2023-05-24T21:28:29.810Z,10.93
2023-05-24T21:30:57.028Z,11.20
2023-05-24T21:33:24.366Z,11.18
2023-05-24T21:35:51.631Z,10.27
2023-05-24T21:38:18.781Z,9.75
2023-05-24T21:40:46.100Z,10.63
2023-05-24T21:43:13.411Z,10.32
2023-05-24T21:45:42.018Z,10.35
2023-05-24T21:48:09.757Z,10.60
2023-05-24T21:50:37.007Z,10.50
2023-05-24T21:53:04.288Z,10.27
2023-05-24T21:55:31.461Z,9.95
2023-05-24T21:57:58.752Z,10.68
2023-05-24T22:00:29.152Z,10.07
2023-05-24T22:02:56.466Z,11.00
2023-05-24T22:05:25.534Z,10.43
2023-05-24T22:07:54.165Z,10.55
2023-05-24T22:10:21.443Z,9.80
2023-05-24T22:12:49.213Z,9.15
2023-05-24T22:15:16.837Z,9.18
2023-05-24T22:17:44.190Z,10.23
2023-05-24T22:20:12.038Z,9.38
2023-05-24T22:22:48.524Z,9.50
2023-05-24T22:25:19.534Z,9.45
2023-05-24T22:27:50.609Z,9.32
2023-05-24T22:30:18.328Z,9.23
2023-05-24T22:32:45.744Z,9.10
2023-05-24T22:35:13.245Z,9.13
2023-05-24T22:37:40.380Z,9.55
2023-05-24T22:40:08.248Z,9.18
2023-05-24T22:42:35.550Z,10.75
2023-05-24T22:45:02.812Z,10.35
2023-05-24T22:47:33.709Z,12.40
2023-05-24T22:50:02.462Z,11.65
2023-05-24T22:52:33.931Z,10.65
2023-05-24T22:55:02.455Z,11.43
2023-05-24T22:57:29.641Z,10.63
2023-05-24T22:59:56.903Z,10.68
2023-05-24T23:02:24.219Z,11.18
2023-05-24T23:04:51.651Z,10.63
2023-05-24T23:07:21.819Z,10.18
2023-05-24T23:09:49.172Z,8.85
2023-05-24T23:12:18.637Z,8.20
2023-05-24T23:14:46.726Z,8.98
2023-05-24T23:17:14.298Z,8.98
2023-05-24T23:19:46.742Z,8.88
2023-05-24T23:22:18.699Z,9.02
2023-05-24T23:24:49.857Z,9.63
2023-05-24T23:27:17.483Z,8.70
2023-05-24T23:29:44.986Z,9.57
2023-05-24T23:32:12.210Z,8.15
2023-05-24T23:34:39.489Z,9.10
2023-05-24T23:37:07.557Z,7.82
2023-05-24T23:39:34.989Z,7.97
2023-05-24T23:42:02.688Z,8.10
2023-05-24T23:44:30.606Z,8.02
2023-05-24T23:46:58.070Z,8.25
2023-05-24T23:49:26.020Z,9.13
2023-05-24T23:51:53.227Z,8.18
2023-05-24T23:54:20.414Z,7.80
2023-05-24T23:56:47.854Z,8.45
2023-05-24T23:59:17.183Z,7.35
